首页
METAR-TAF:

METAR-TAF

机场 :

根西岛,

纬度: 49-26N, 经度: 002-36W, 海拔: 102米

当前天气观测

该预报发布于44分钟前的06:50 UTC
风速4节,风向北转东北
温度 7°C
湿度 81%
气压 1008 hPa
能见度10公里或以上
少量云层高于2500英尺

METAR: EGJB 170650Z 02004KT 9999 FEW025 07/04 Q1008

时间: 07:34 (07:34 UTC)

预报

该预报发布于2小时和36分钟前的04:58 UTC
预报有效从17日的 06点(UTC)到 17日的 15点(UTC)
风速3节,风向多变
能见度10公里或以上
少量云层高于1500英尺
多云层高于3500英尺
几率 40% :
短暂存在
从 17日的 06点(UTC)到 17日的 15点(UTC)
风速10节,风向北转东北
能見度: 8000
多云层高于1500英尺
阵雨

TAF: EGJB 170458Z 1706/1715 VRB03KT 9999 FEW015 BKN035 PROB40 TEMPO 1706/1715 03010KT 8000 SHRA BKN015

超过4000个机场的气象观测和天气预报(METAR&TAF报告)。

可查询的气象台以黄色和红色小点在地图上表示。

将鼠标移到小点上方,可查看气象台名称。

然后点击查看天气观测和预报。

如需切换地图:点击带黑十字的绿色按钮放大地图;点击带横线的绿色按钮缩小地图;或者点击绿色箭头查看邻近地区的地图。


METAR-TAF: